sensor_id;sensor_type;location;lat;lon;timestamp;pressure;altitude;pressure_sealevel;temperature;humidity
42671;BME280;28283;55.426;37.756;2023-04-25T00:02:22;99254.25;;;13.32;40.54
42671;BME280;28283;55.426;37.756;2023-04-25T00:07:22;99252.34;;;13.32;41.52
42671;BME280;28283;55.426;37.756;2023-04-25T00:12:23;99239.34;;;13.23;42.02
42671;BME280;28283;55.426;37.756;2023-04-25T00:17:23;99239.78;;;13.20;42.44
42671;BME280;28283;55.426;37.756;2023-04-25T00:22:27;99234.84;;;13.10;42.88
42671;BME280;28283;55.426;37.756;2023-04-25T00:27:27;99227.50;;;12.98;42.84
42671;BME280;28283;55.426;37.756;2023-04-25T00:32:28;99226.66;;;12.98;42.24
42671;BME280;28283;55.426;37.756;2023-04-25T00:37:28;99230.78;;;13.01;42.56
42671;BME280;28283;55.426;37.756;2023-04-25T00:42:29;99221.66;;;13.02;43.03
42671;BME280;28283;55.426;37.756;2023-04-25T06:09:56;99153.34;;;17.99;43.23
42671;BME280;28283;55.426;37.756;2023-04-25T06:14:57;99148.53;;;18.34;41.87
42671;BME280;28283;55.426;37.756;2023-04-25T06:19:58;99138.94;;;18.53;41.79
42671;BME280;28283;55.426;37.756;2023-04-25T06:24:58;99137.69;;;18.66;41.63
42671;BME280;28283;55.426;37.756;2023-04-25T06:30:00;99142.78;;;18.84;41.16
42671;BME280;28283;55.426;37.756;2023-04-25T06:35:00;99146.34;;;18.90;40.40
42671;BME280;28283;55.426;37.756;2023-04-25T06:40:01;99145.19;;;18.81;40.26
42671;BME280;28283;55.426;37.756;2023-04-25T06:45:02;99144.59;;;18.79;40.00
42671;BME280;28283;55.426;37.756;2023-04-25T06:50:03;99143.38;;;18.92;39.70
42671;BME280;28283;55.426;37.756;2023-04-25T06:55:03;99144.19;;;18.92;39.95
42671;BME280;28283;55.426;37.756;2023-04-25T07:00:05;99135.22;;;18.97;39.55
42671;BME280;28283;55.426;37.756;2023-04-25T07:05:09;99149.47;;;19.09;39.89
42671;BME280;28283;55.426;37.756;2023-04-25T07:10:09;99158.31;;;19.26;38.69
42671;BME280;28283;55.426;37.756;2023-04-25T07:15:10;99157.03;;;19.39;38.83
42671;BME280;28283;55.426;37.756;2023-04-25T07:20:11;99146.13;;;19.39;38.06
42671;BME280;28283;55.426;37.756;2023-04-25T07:25:12;99149.41;;;19.41;38.29
42671;BME280;28283;55.426;37.756;2023-04-25T07:30:12;99150.19;;;19.32;38.37
42671;BME280;28283;55.426;37.756;2023-04-25T07:35:13;99151.84;;;19.33;38.36
42671;BME280;28283;55.426;37.756;2023-04-25T07:40:13;99160.22;;;19.26;38.17
42671;BME280;28283;55.426;37.756;2023-04-25T07:45:16;99149.91;;;19.33;37.96
42671;BME280;28283;55.426;37.756;2023-04-25T07:50:17;99152.63;;;19.28;38.08
42671;BME280;28283;55.426;37.756;2023-04-25T07:55:17;99145.34;;;19.44;37.98
42671;BME280;28283;55.426;37.756;2023-04-25T08:00:18;99145.19;;;19.66;36.88
42671;BME280;28283;55.426;37.756;2023-04-25T08:05:18;99141.22;;;19.36;37.22
42671;BME280;28283;55.426;37.756;2023-04-25T08:10:19;99136.56;;;19.32;37.24
42671;BME280;28283;55.426;37.756;2023-04-25T08:15:19;99131.84;;;19.22;37.30
42671;BME280;28283;55.426;37.756;2023-04-25T08:20:20;99132.50;;;19.39;37.31
42671;BME280;28283;55.426;37.756;2023-04-25T08:25:21;99128.19;;;19.43;36.84
42671;BME280;28283;55.426;37.756;2023-04-25T08:30:21;99133.13;;;19.52;36.30
42671;BME280;28283;55.426;37.756;2023-04-25T08:35:22;99111.81;;;19.43;35.91
42671;BME280;28283;55.426;37.756;2023-04-25T08:40:23;99106.38;;;19.49;36.63
42671;BME280;28283;55.426;37.756;2023-04-25T08:45:27;99104.13;;;19.83;36.07
42671;BME280;28283;55.426;37.756;2023-04-25T08:50:28;99103.91;;;20.10;35.62
42671;BME280;28283;55.426;37.756;2023-04-25T08:55:28;99090.56;;;20.50;35.44
42671;BME280;28283;55.426;37.756;2023-04-25T09:00:29;99091.94;;;20.78;34.95
42671;BME280;28283;55.426;37.756;2023-04-25T09:05:30;99082.13;;;20.72;33.84
42671;BME280;28283;55.426;37.756;2023-04-25T09:10:32;99085.34;;;20.28;34.40
42671;BME280;28283;55.426;37.756;2023-04-25T09:15:32;99082.63;;;20.17;34.19
42671;BME280;28283;55.426;37.756;2023-04-25T09:20:33;99069.53;;;20.40;34.13
42671;BME280;28283;55.426;37.756;2023-04-25T09:25:41;99064.94;;;20.76;33.86
42671;BME280;28283;55.426;37.756;2023-04-25T09:30:43;99072.25;;;21.07;34.06
42671;BME280;28283;55.426;37.756;2023-04-25T09:35:46;99054.75;;;21.08;33.28
42671;BME280;28283;55.426;37.756;2023-04-25T09:40:46;99056.13;;;21.00;34.13
42671;BME280;28283;55.426;37.756;2023-04-25T09:45:50;99056.13;;;21.10;33.11
42671;BME280;28283;55.426;37.756;2023-04-25T09:56:08;99036.94;;;21.15;32.81
42671;BME280;28283;55.426;37.756;2023-04-25T10:01:09;99037.34;;;21.59;32.37
42671;BME280;28283;55.426;37.756;2023-04-25T10:06:14;99039.34;;;21.92;31.69
42671;BME280;28283;55.426;37.756;2023-04-25T10:11:15;99028.06;;;22.04;31.07
42671;BME280;28283;55.426;37.756;2023-04-25T10:16:17;99025.16;;;22.30;30.51
42671;BME280;28283;55.426;37.756;2023-04-25T10:21:17;99013.91;;;22.32;30.71
42671;BME280;28283;55.426;37.756;2023-04-25T10:26:20;99011.47;;;22.30;30.87
42671;BME280;28283;55.426;37.756;2023-04-25T10:31:20;99013.97;;;22.56;30.93
42671;BME280;28283;55.426;37.756;2023-04-25T10:36:21;99000.81;;;22.58;30.17
42671;BME280;28283;55.426;37.756;2023-04-25T10:41:22;99003.22;;;22.35;31.05
42671;BME280;28283;55.426;37.756;2023-04-25T10:46:24;98994.78;;;22.26;31.16
42671;BME280;28283;55.426;37.756;2023-04-25T10:51:34;98981.69;;;22.53;31.12
42671;BME280;28283;55.426;37.756;2023-04-25T11:01:38;98986.69;;;22.99;30.36
42671;BME280;28283;55.426;37.756;2023-04-25T11:11:53;98968.38;;;22.94;30.85
42671;BME280;28283;55.426;37.756;2023-04-25T11:16:54;98962.19;;;22.83;29.84
42671;BME280;28283;55.426;37.756;2023-04-25T11:21:58;98957.63;;;22.74;30.73
42671;BME280;28283;55.426;37.756;2023-04-25T11:26:59;98948.31;;;22.51;29.77
42671;BME280;28283;55.426;37.756;2023-04-25T11:32:02;98945.66;;;22.40;30.26
42671;BME280;28283;55.426;37.756;2023-04-25T11:37:02;98940.66;;;22.47;30.80
42671;BME280;28283;55.426;37.756;2023-04-25T11:42:03;98931.69;;;22.66;30.53
42671;BME280;28283;55.426;37.756;2023-04-25T11:47:04;98921.91;;;22.60;30.67
42671;BME280;28283;55.426;37.756;2023-04-25T11:52:06;98911.75;;;22.36;30.11
42671;BME280;28283;55.426;37.756;2023-04-25T11:57:07;98902.22;;;22.28;30.75
42671;BME280;28283;55.426;37.756;2023-04-25T12:02:07;98907.41;;;22.30;30.32
42671;BME280;28283;55.426;37.756;2023-04-25T12:07:09;98901.97;;;22.25;30.62
42671;BME280;28283;55.426;37.756;2023-04-25T12:12:10;98893.78;;;22.20;31.07
42671;BME280;28283;55.426;37.756;2023-04-25T12:17:10;98886.41;;;22.20;30.93
42671;BME280;28283;55.426;37.756;2023-04-25T12:22:22;98878.72;;;22.22;30.80
42671;BME280;28283;55.426;37.756;2023-04-25T12:27:23;98864.66;;;22.05;31.33
42671;BME280;28283;55.426;37.756;2023-04-25T12:32:26;98867.41;;;21.76;31.47
42671;BME280;28283;55.426;37.756;2023-04-25T12:37:28;98855.50;;;21.56;31.69
42671;BME280;28283;55.426;37.756;2023-04-25T12:42:28;98848.41;;;21.55;31.77
42671;BME280;28283;55.426;37.756;2023-04-25T12:47:29;98841.81;;;21.61;31.56
42671;BME280;28283;55.426;37.756;2023-04-25T12:52:30;98829.84;;;21.52;31.87
42671;BME280;28283;55.426;37.756;2023-04-25T12:57:30;98822.78;;;21.46;31.61
42671;BME280;28283;55.426;37.756;2023-04-25T13:02:31;98825.50;;;21.46;31.15
42671;BME280;28283;55.426;37.756;2023-04-25T13:07:32;98815.94;;;21.43;31.46
42671;BME280;28283;55.426;37.756;2023-04-25T13:12:32;98807.44;;;21.45;31.39
42671;BME280;28283;55.426;37.756;2023-04-25T13:17:33;98793.03;;;21.34;31.49
42671;BME280;28283;55.426;37.756;2023-04-25T13:22:34;98792.53;;;21.32;31.64
42671;BME280;28283;55.426;37.756;2023-04-25T13:27:37;98784.19;;;21.13;31.72
42671;BME280;28283;55.426;37.756;2023-04-25T13:32:37;98775.13;;;21.17;31.99
42671;BME280;28283;55.426;37.756;2023-04-25T13:37:38;98764.34;;;21.31;31.79
42671;BME280;28283;55.426;37.756;2023-04-25T13:42:38;98756.59;;;21.49;31.47
42671;BME280;28283;55.426;37.756;2023-04-25T13:47:39;98751.41;;;21.47;31.45
42671;BME280;28283;55.426;37.756;2023-04-25T13:52:40;98744.09;;;21.38;31.72
42671;BME280;28283;55.426;37.756;2023-04-25T13:57:40;98735.34;;;21.35;31.57
42671;BME280;28283;55.426;37.756;2023-04-25T14:02:41;98726.19;;;21.21;31.84
42671;BME280;28283;55.426;37.756;2023-04-25T14:07:41;98723.81;;;21.09;32.04
42671;BME280;28283;55.426;37.756;2023-04-25T14:12:42;98710.53;;;20.92;32.15
42671;BME280;28283;55.426;37.756;2023-04-25T14:17:42;98701.06;;;20.79;32.21
42671;BME280;28283;55.426;37.756;2023-04-25T14:22:43;98703.34;;;20.67;32.30
42671;BME280;28283;55.426;37.756;2023-04-25T14:27:43;98691.63;;;20.62;32.61
42671;BME280;28283;55.426;37.756;2023-04-25T14:32:50;98680.16;;;20.59;32.43
42671;BME280;28283;55.426;37.756;2023-04-25T14:37:50;98682.63;;;20.56;32.68
42671;BME280;28283;55.426;37.756;2023-04-25T14:42:51;98675.00;;;20.53;32.50
42671;BME280;28283;55.426;37.756;2023-04-25T14:47:51;98661.94;;;20.50;32.40
42671;BME280;28283;55.426;37.756;2023-04-25T14:52:52;98658.13;;;20.46;32.49
42671;BME280;28283;55.426;37.756;2023-04-25T14:57:55;98646.72;;;20.38;32.76
42671;BME280;28283;55.426;37.756;2023-04-25T15:02:56;98638.88;;;20.27;32.58
42671;BME280;28283;55.426;37.756;2023-04-25T15:07:57;98626.91;;;20.23;32.71
42671;BME280;28283;55.426;37.756;2023-04-25T15:12:58;98622.56;;;20.16;32.77
42671;BME280;28283;55.426;37.756;2023-04-25T15:17:59;98622.56;;;20.16;32.74
42671;BME280;28283;55.426;37.756;2023-04-25T15:23:00;98616.03;;;20.12;32.75
42671;BME280;28283;55.426;37.756;2023-04-25T15:28:03;98596.16;;;20.07;32.69
42671;BME280;28283;55.426;37.756;2023-04-25T15:33:04;98588.31;;;19.95;32.84
42671;BME280;28283;55.426;37.756;2023-04-25T15:38:05;98593.00;;;19.84;32.93
42671;BME280;28283;55.426;37.756;2023-04-25T15:43:05;98575.31;;;19.76;32.92
42671;BME280;28283;55.426;37.756;2023-04-25T15:48:06;98570.94;;;19.75;33.00
42671;BME280;28283;55.426;37.756;2023-04-25T15:53:06;98566.34;;;19.65;33.30
42671;BME280;28283;55.426;37.756;2023-04-25T15:58:07;98557.69;;;19.53;33.13
42671;BME280;28283;55.426;37.756;2023-04-25T16:03:07;98548.97;;;19.46;33.26
42671;BME280;28283;55.426;37.756;2023-04-25T16:08:08;98543.81;;;19.39;33.51
42671;BME280;28283;55.426;37.756;2023-04-25T16:13:10;98544.69;;;19.30;33.66
42671;BME280;28283;55.426;37.756;2023-04-25T16:18:11;98562.72;;;19.15;33.98
42671;BME280;28283;55.426;37.756;2023-04-25T16:23:11;98576.94;;;18.86;36.73
42671;BME280;28283;55.426;37.756;2023-04-25T16:28:12;98568.44;;;18.21;37.41
42671;BME280;28283;55.426;37.756;2023-04-25T16:33:12;98568.94;;;17.87;39.05
42671;BME280;28283;55.426;37.756;2023-04-25T16:38:12;98564.69;;;17.49;39.85
42671;BME280;28283;55.426;37.756;2023-04-25T16:43:13;98577.63;;;17.21;40.62
42671;BME280;28283;55.426;37.756;2023-04-25T16:48:13;98578.28;;;17.01;41.70
42671;BME280;28283;55.426;37.756;2023-04-25T16:53:15;98585.56;;;16.90;42.48
42671;BME280;28283;55.426;37.756;2023-04-25T16:58:16;98580.72;;;16.65;43.99
42671;BME280;28283;55.426;37.756;2023-04-25T17:03:17;98584.59;;;16.37;46.22
42671;BME280;28283;55.426;37.756;2023-04-25T17:08:17;98574.38;;;16.17;45.59
42671;BME280;28283;55.426;37.756;2023-04-25T17:13:18;98580.91;;;15.94;45.41
42671;BME280;28283;55.426;37.756;2023-04-25T17:18:18;98575.41;;;15.66;46.38
42671;BME280;28283;55.426;37.756;2023-04-25T17:23:19;98576.75;;;15.42;48.68
42671;BME280;28283;55.426;37.756;2023-04-25T17:28:19;98575.34;;;15.17;50.25
42671;BME280;28283;55.426;37.756;2023-04-25T17:33:20;98572.53;;;14.90;50.81
42671;BME280;28283;55.426;37.756;2023-04-25T17:38:25;98557.38;;;14.72;51.54
42671;BME280;28283;55.426;37.756;2023-04-25T17:43:26;98558.91;;;14.51;51.89
42671;BME280;28283;55.426;37.756;2023-04-25T17:48:27;98565.31;;;14.45;54.11
42671;BME280;28283;55.426;37.756;2023-04-25T17:53:27;98565.13;;;14.51;56.83
42671;BME280;28283;55.426;37.756;2023-04-25T17:58:28;98562.50;;;14.57;55.25
42671;BME280;28283;55.426;37.756;2023-04-25T18:03:29;98562.88;;;14.60;52.02
42671;BME280;28283;55.426;37.756;2023-04-25T18:08:29;98561.56;;;14.63;50.50
42671;BME280;28283;55.426;37.756;2023-04-25T18:13:30;98556.97;;;14.63;50.45
42671;BME280;28283;55.426;37.756;2023-04-25T18:18:31;98555.66;;;14.66;49.83
42671;BME280;28283;55.426;37.756;2023-04-25T18:23:33;98548.69;;;14.70;51.08
42671;BME280;28283;55.426;37.756;2023-04-25T18:28:34;98546.56;;;14.72;51.53
42671;BME280;28283;55.426;37.756;2023-04-25T18:33:35;98546.31;;;14.74;55.49
42671;BME280;28283;55.426;37.756;2023-04-25T18:38:35;98538.94;;;14.69;53.35
42671;BME280;28283;55.426;37.756;2023-04-25T18:43:36;98533.75;;;14.67;52.55
42671;BME280;28283;55.426;37.756;2023-04-25T18:48:36;98530.72;;;14.64;51.57
42671;BME280;28283;55.426;37.756;2023-04-25T18:53:37;98523.63;;;14.58;50.54
42671;BME280;28283;55.426;37.756;2023-04-25T18:58:37;98514.34;;;14.54;48.99
42671;BME280;28283;55.426;37.756;2023-04-25T19:03:38;98510.47;;;14.49;51.43
42671;BME280;28283;55.426;37.756;2023-04-25T19:08:39;98500.34;;;14.40;49.90
42671;BME280;28283;55.426;37.756;2023-04-25T19:13:39;98484.28;;;14.33;53.09
42671;BME280;28283;55.426;37.756;2023-04-25T19:18:40;98483.94;;;14.29;50.11
42671;BME280;28283;55.426;37.756;2023-04-25T19:23:40;98477.56;;;14.19;50.85
42671;BME280;28283;55.426;37.756;2023-04-25T19:28:42;98472.06;;;14.13;51.60
42671;BME280;28283;55.426;37.756;2023-04-25T19:33:43;98463.97;;;14.13;50.53
42671;BME280;28283;55.426;37.756;2023-04-25T19:38:44;98459.72;;;14.18;49.45
42671;BME280;28283;55.426;37.756;2023-04-25T19:43:45;98454.56;;;14.16;53.54
42671;BME280;28283;55.426;37.756;2023-04-25T19:48:45;98447.75;;;14.13;51.40
42671;BME280;28283;55.426;37.756;2023-04-25T19:53:46;98439.63;;;14.13;54.47
42671;BME280;28283;55.426;37.756;2023-04-25T19:58:46;98437.19;;;14.12;50.58
42671;BME280;28283;55.426;37.756;2023-04-25T20:03:47;98422.63;;;14.13;50.38
42671;BME280;28283;55.426;37.756;2023-04-25T20:08:53;98405.59;;;14.12;51.85
42671;BME280;28283;55.426;37.756;2023-04-25T20:13:54;98399.03;;;14.08;51.85
42671;BME280;28283;55.426;37.756;2023-04-25T20:18:55;98381.69;;;14.04;57.09
42671;BME280;28283;55.426;37.756;2023-04-25T20:23:56;98382.06;;;13.96;54.07
42671;BME280;28283;55.426;37.756;2023-04-25T20:28:57;98374.00;;;13.79;54.52
42671;BME280;28283;55.426;37.756;2023-04-25T20:33:57;98357.63;;;13.69;57.51
42671;BME280;28283;55.426;37.756;2023-04-25T20:39:00;98354.09;;;13.68;59.68
42671;BME280;28283;55.426;37.756;2023-04-25T20:44:00;98343.53;;;13.67;55.19
42671;BME280;28283;55.426;37.756;2023-04-25T20:49:02;98339.28;;;13.54;56.96
42671;BME280;28283;55.426;37.756;2023-04-25T20:54:04;98331.69;;;13.51;58.51
42671;BME280;28283;55.426;37.756;2023-04-25T20:59:04;98328.97;;;13.51;59.86
42671;BME280;28283;55.426;37.756;2023-04-25T21:04:05;98323.00;;;13.49;56.81
42671;BME280;28283;55.426;37.756;2023-04-25T21:09:06;98310.59;;;13.48;57.11
42671;BME280;28283;55.426;37.756;2023-04-25T21:14:06;98313.28;;;13.48;62.56
42671;BME280;28283;55.426;37.756;2023-04-25T21:19:07;98295.69;;;13.45;57.99
42671;BME280;28283;55.426;37.756;2023-04-25T21:24:09;98297.63;;;13.33;57.52
42671;BME280;28283;55.426;37.756;2023-04-25T21:29:10;98292.06;;;13.23;57.05
42671;BME280;28283;55.426;37.756;2023-04-25T21:34:11;98281.47;;;13.04;59.22
42671;BME280;28283;55.426;37.756;2023-04-25T21:39:11;98285.72;;;13.00;57.97
42671;BME280;28283;55.426;37.756;2023-04-25T21:44:11;98279.00;;;12.86;62.18
42671;BME280;28283;55.426;37.756;2023-04-25T21:49:13;98273.38;;;12.87;58.23
42671;BME280;28283;55.426;37.756;2023-04-25T21:54:14;98271.97;;;12.85;59.82
42671;BME280;28283;55.426;37.756;2023-04-25T21:59:14;98261.16;;;12.85;62.90
42671;BME280;28283;55.426;37.756;2023-04-25T22:04:14;98252.16;;;12.79;62.17
42671;BME280;28283;55.426;37.756;2023-04-25T22:09:15;98246.28;;;12.65;59.49
42671;BME280;28283;55.426;37.756;2023-04-25T22:14:16;98241.38;;;12.62;63.00
42671;BME280;28283;55.426;37.756;2023-04-25T22:19:17;98236.34;;;12.54;63.01
42671;BME280;28283;55.426;37.756;2023-04-25T22:24:17;98225.13;;;12.45;64.22
42671;BME280;28283;55.426;37.756;2023-04-25T22:29:18;98227.31;;;12.31;68.22
42671;BME280;28283;55.426;37.756;2023-04-25T22:34:18;98215.25;;;12.22;64.76
42671;BME280;28283;55.426;37.756;2023-04-25T22:39:19;98214.56;;;12.15;65.87
42671;BME280;28283;55.426;37.756;2023-04-25T22:44:20;98204.63;;;12.15;65.25
42671;BME280;28283;55.426;37.756;2023-04-25T22:49:21;98186.47;;;12.11;65.71
42671;BME280;28283;55.426;37.756;2023-04-25T22:54:23;98186.59;;;12.16;65.26
42671;BME280;28283;55.426;37.756;2023-04-25T22:59:24;98175.00;;;12.15;66.75
42671;BME280;28283;55.426;37.756;2023-04-25T23:04:25;98169.41;;;12.05;65.80
42671;BME280;28283;55.426;37.756;2023-04-25T23:09:25;98153.16;;;12.00;68.38
42671;BME280;28283;55.426;37.756;2023-04-25T23:14:26;98153.97;;;12.00;66.67
42671;BME280;28283;55.426;37.756;2023-04-25T23:19:27;98144.94;;;12.07;62.83
42671;BME280;28283;55.426;37.756;2023-04-25T23:24:28;98130.72;;;12.11;64.75
42671;BME280;28283;55.426;37.756;2023-04-25T23:29:30;98132.75;;;12.04;67.23
42671;BME280;28283;55.426;37.756;2023-04-25T23:34:33;98123.38;;;12.07;69.99
42671;BME280;28283;55.426;37.756;2023-04-25T23:39:34;98122.88;;;11.81;70.64
42671;BME280;28283;55.426;37.756;2023-04-25T23:44:34;98117.00;;;11.84;72.26
42671;BME280;28283;55.426;37.756;2023-04-25T23:49:35;98115.41;;;11.71;72.37
42671;BME280;28283;55.426;37.756;2023-04-25T23:54:35;98113.63;;;11.77;73.47
42671;BME280;28283;55.426;37.756;2023-04-25T23:59:36;98106.06;;;11.62;74.40
